Wetterdaten: Woche 23.04.18 - 29.04.18 (KW17)
Datum Zeit Temp. A. Feuchte A. Luftdruck Regen Wind Richtung Taupunkt Windchill Windben
23.04.2018 00:00 15,9 C 76 % 1013,0 hPa 0,0 l/m 0,0 km/h N 11,7 C 15,9 C 0,8 km/h
23.04.2018 01:00 15,1 C 77 % 1013,0 hPa 0,0 l/m 0,0 km/h N 11,1 C 15,1 C 0,0 km/h
23.04.2018 02:00 14,0 C 80 % 1012,8 hPa 0,0 l/m 0,0 km/h N 10,5 C 14,0 C 0,4 km/h
23.04.2018 03:00 13,6 C 81 % 1012,7 hPa 0,0 l/m 0,0 km/h N 10,4 C 13,6 C 0,4 km/h
23.04.2018 04:00 12,6 C 81 % 1012,7 hPa 0,0 l/m 0,0 km/h N 9,5 C 12,6 C 0,0 km/h
23.04.2018 05:00 11,9 C 82 % 1012,6 hPa 0,0 l/m 0,0 km/h N 8,9 C 11,9 C 0,8 km/h
23.04.2018 06:00 11,6 C 82 % 1012,8 hPa 0,0 l/m 0,0 km/h N 8,6 C 11,6 C 0,0 km/h
23.04.2018 07:00 12,5 C 82 % 1013,0 hPa 0,0 l/m 0,0 km/h N 9,5 C 12,5 C 0,0 km/h
23.04.2018 08:00 15,2 C 80 % 1013,8 hPa 0,3 l/m 1,1 km/h N 11,7 C 15,2 C 8,4 km/h
23.04.2018 09:00 17,4 C 80 % 1013,7 hPa 0,0 l/m 0,0 km/h N 13,9 C 17,4 C 0,4 km/h
23.04.2018 10:00 22,8 C 64 % 1013,2 hPa 0,0 l/m 1,3 km/h N 15,4 C 22,8 C 10,4 km/h
23.04.2018 11:00 25,3 C 45 % 1012,9 hPa 0,0 l/m 7,6 km/h N 12,4 C 24,9 C 23,7 km/h
23.04.2018 12:00 26,1 C 42 % 1012,8 hPa 0,0 l/m 9,0 km/h N 12,0 C 25,6 C 30,2 km/h
23.04.2018 13:00 26,0 C 44 % 1012,5 hPa 0,0 l/m 8,8 km/h N 12,8 C 25,5 C 25,3 km/h
23.04.2018 14:00 27,0 C 41 % 1012,0 hPa 0,0 l/m 6,1 km/h N 12,5 C 26,9 C 20,1 km/h
23.04.2018 15:00 27,2 C 37 % 1011,7 hPa 0,0 l/m 7,3 km/h N 11,0 C 27,0 C 22,5 km/h
23.04.2018 16:00 27,1 C 35 % 1011,2 hPa 0,0 l/m 5,2 km/h N 10,2 C 27,0 C 21,3 km/h
23.04.2018 17:00 26,9 C 34 % 1011,0 hPa 0,0 l/m 3,5 km/h N 9,7 C 26,9 C 16,5 km/h
23.04.2018 18:00 26,3 C 37 % 1011,1 hPa 0,0 l/m 1,0 km/h N 10,2 C 26,3 C 6,5 km/h
23.04.2018 19:00 24,8 C 42 % 1011,7 hPa 0,0 l/m 0,9 km/h N 10,8 C 24,8 C 5,6 km/h
23.04.2018 20:00 22,6 C 48 % 1012,8 hPa 0,0 l/m 2,1 km/h N 11,0 C 22,6 C 10,5 km/h
23.04.2018 21:00 20,9 C 53 % 1013,3 hPa 0,0 l/m 0,1 km/h N 11,0 C 20,9 C 3,2 km/h
23.04.2018 22:00 19,4 C 59 % 1013,6 hPa 0,0 l/m 0,0 km/h N 11,2 C 19,4 C 0,4 km/h
23.04.2018 23:00 17,7 C 65 % 1013,9 hPa 0,0 l/m 0,1 km/h N 11,1 C 17,7 C 1,6 km/h
24.04.2018 00:00 18,4 C 67 % 1014,6 hPa 0,8 l/m 5,6 km/h N 12,1 C 17,8 C 20,9 km/h
24.04.2018 01:00 16,3 C 78 % 1014,7 hPa 0,0 l/m 0,7 km/h N 12,4 C 16,3 C 4,8 km/h
24.04.2018 02:00 15,4 C 80 % 1014,5 hPa 0,0 l/m 0,0 km/h N 12,0 C 15,4 C 2,8 km/h
24.04.2018 03:00 16,5 C 75 % 1014,4 hPa 0,0 l/m 6,2 km/h N 12,1 C 16,2 C 22,5 km/h
24.04.2018 04:00 17,3 C 70 % 1014,6 hPa 0,0 l/m 10,2 km/h N 11,7 C 15,5 C 25,3 km/h
24.04.2018 05:00 17,2 C 70 % 1014,8 hPa 0,0 l/m 7,9 km/h N 11,7 C 16,4 C 26,6 km/h
24.04.2018 06:00 16,8 C 73 % 1015,1 hPa 0,0 l/m 7,6 km/h N 12,0 C 16,2 C 23,3 km/h
24.04.2018 07:00 16,7 C 76 % 1015,6 hPa 0,0 l/m 10,1 km/h N 12,3 C 14,9 C 27,8 km/h
24.04.2018 08:00 16,8 C 74 % 1016,4 hPa 0,0 l/m 11,2 km/h N 12,1 C 14,7 C 29,8 km/h
24.04.2018 09:00 17,5 C 72 % 1017,0 hPa 0,0 l/m 7,7 km/h N 12,2 C 16,8 C 24,1 km/h
24.04.2018 10:00 18,3 C 70 % 1017,2 hPa 0,0 l/m 9,3 km/h N 12,6 C 17,1 C 25,0 km/h
24.04.2018 11:00 20,1 C 66 % 1016,9 hPa 0,0 l/m 8,6 km/h N 13,5 C 19,1 C 24,1 km/h
24.04.2018 12:00 21,3 C 61 % 1016,8 hPa 0,0 l/m 6,5 km/h N 13,3 C 21,0 C 21,7 km/h
24.04.2018 13:00 22,3 C 55 % 1016,4 hPa 0,0 l/m 4,5 km/h N 12,8 C 22,3 C 18,5 km/h
24.04.2018 14:00 22,5 C 52 % 1016,0 hPa 0,0 l/m 6,4 km/h N 12,0 C 22,4 C 26,2 km/h
24.04.2018 15:00 22,0 C 50 % 1015,3 hPa 0,3 l/m 8,2 km/h N 11,2 C 21,3 C 27,8 km/h
24.04.2018 16:00 21,9 C 49 % 1014,8 hPa 0,0 l/m 8,8 km/h N 10,5 C 21,1 C 26,9 km/h
24.04.2018 17:00 21,9 C 49 % 1014,5 hPa 0,0 l/m 8,4 km/h N 10,5 C 21,2 C 26,6 km/h
24.04.2018 18:00 21,8 C 49 % 1014,3 hPa 0,0 l/m 5,7 km/h N 10,5 C 21,8 C 20,1 km/h
24.04.2018 19:00 21,2 C 52 % 1014,3 hPa 0,0 l/m 1,7 km/h N 10,8 C 21,2 C 10,8 km/h
24.04.2018 20:00 19,4 C 57 % 1014,4 hPa 0,0 l/m 0,0 km/h N 10,6 C 19,4 C 0,0 km/h
24.04.2018 21:00 16,4 C 66 % 1014,7 hPa 0,0 l/m 0,0 km/h N 9,9 C 16,4 C 0,0 km/h
24.04.2018 22:00 14,9 C 73 % 1014,6 hPa 0,0 l/m 0,0 km/h N 10,1 C 14,9 C 0,0 km/h
24.04.2018 23:00 14,4 C 76 % 1014,4 hPa 0,0 l/m 0,0 km/h N 10,2 C 14,4 C 0,0 km/h
25.04.2018 00:00 14,5 C 76 % 1014,1 hPa 0,0 l/m 0,0 km/h N 10,4 C 14,5 C 0,8 km/h
25.04.2018 01:00 14,4 C 77 % 1013,7 hPa 0,0 l/m 0,3 km/h N 10,3 C 14,4 C 4,8 km/h
25.04.2018 02:00 13,8 C 77 % 1013,2 hPa 0,0 l/m 0,0 km/h N 9,9 C 13,8 C 1,2 km/h
25.04.2018 03:00 13,0 C 79 % 1012,9 hPa 0,0 l/m 0,0 km/h N 9,3 C 13,0 C 0,0 km/h
25.04.2018 04:00 12,1 C 80 % 1012,7 hPa 0,0 l/m 0,1 km/h N 8,8 C 12,1 C 2,0 km/h
25.04.2018 05:00 12,2 C 81 % 1012,4 hPa 0,0 l/m 0,2 km/h N 9,0 C 12,2 C 3,2 km/h
25.04.2018 06:00 12,1 C 81 % 1012,5 hPa 0,0 l/m 0,0 km/h N 8,9 C 12,1 C 0,8 km/h
25.04.2018 07:00 12,5 C 82 % 1012,9 hPa 0,0 l/m 0,0 km/h N 9,5 C 12,5 C 0,0 km/h
25.04.2018 08:00 14,2 C 81 % 1013,1 hPa 0,0 l/m 0,0 km/h N 11,0 C 14,2 C 1,2 km/h
25.04.2018 09:00 18,1 C 73 % 1012,8 hPa 0,0 l/m 0,0 km/h N 13,2 C 18,1 C 1,6 km/h
25.04.2018 10:00 22,2 C 63 % 1012,4 hPa 0,0 l/m 0,1 km/h N 14,8 C 22,2 C 2,8 km/h
25.04.2018 11:00 25,2 C 53 % 1011,6 hPa 0,0 l/m 0,4 km/h N 14,8 C 25,2 C 5,6 km/h
25.04.2018 12:00 26,0 C 42 % 1010,9 hPa 0,0 l/m 6,4 km/h N 12,1 C 25,6 C 20,9 km/h
25.04.2018 13:00 25,6 C 38 % 1010,4 hPa 0,0 l/m 13,1 km/h N 10,1 C 24,3 C 31,8 km/h
25.04.2018 14:00 25,3 C 41 % 1010,0 hPa 0,0 l/m 10,9 km/h N 10,9 C 24,3 C 27,4 km/h
25.04.2018 15:00 25,2 C 44 % 1009,3 hPa 0,0 l/m 8,1 km/h N 12,0 C 24,8 C 24,5 km/h
25.04.2018 16:00 25,3 C 45 % 1008,9 hPa 0,0 l/m 5,9 km/h N 12,6 C 25,2 C 20,1 km/h
25.04.2018 17:00 25,2 C 45 % 1008,7 hPa 0,0 l/m 3,9 km/h N 12,4 C 25,2 C 13,7 km/h
25.04.2018 18:00 24,9 C 47 % 1008,3 hPa 0,0 l/m 0,6 km/h N 12,6 C 24,9 C 5,6 km/h
25.04.2018 19:00 24,0 C 51 % 1008,1 hPa 0,0 l/m 0,0 km/h N 13,1 C 24,0 C 0,0 km/h
25.04.2018 20:00 21,4 C 60 % 1008,5 hPa 0,0 l/m 0,0 km/h N 13,2 C 21,4 C 0,0 km/h
25.04.2018 21:00 19,6 C 66 % 1009,2 hPa 0,0 l/m 0,2 km/h N 13,0 C 19,6 C 3,6 km/h
25.04.2018 22:00 19,9 C 59 % 1009,0 hPa 0,0 l/m 1,1 km/h N 11,6 C 19,9 C 6,4 km/h
25.04.2018 23:00 20,6 C 55 % 1009,8 hPa 0,0 l/m 4,5 km/h N 11,2 C 20,6 C 9,7 km/h
26.04.2018 00:00 19,5 C 58 % 1010,5 hPa 0,0 l/m 0,5 km/h N 10,9 C 19,5 C 5,2 km/h
26.04.2018 01:00 19,0 C 57 % 1011,0 hPa 0,0 l/m 0,5 km/h N 10,3 C 19,0 C 6,4 km/h
26.04.2018 02:00 18,4 C 59 % 1011,0 hPa 0,0 l/m 0,0 km/h N 10,3 C 18,4 C 0,8 km/h
26.04.2018 03:00 18,1 C 56 % 1011,1 hPa 0,0 l/m 2,2 km/h N 9,1 C 18,1 C 10,4 km/h
26.04.2018 04:00 17,5 C 62 % 1011,5 hPa 0,0 l/m 3,1 km/h N 10,0 C 17,5 C 11,7 km/h
26.04.2018 05:00 15,8 C 75 % 1011,9 hPa 0,0 l/m 0,3 km/h N 11,3 C 15,8 C 4,4 km/h
26.04.2018 06:00 14,8 C 80 % 1012,3 hPa 0,5 l/m 0,1 km/h N 11,3 C 14,8 C 2,8 km/h
26.04.2018 07:00 14,0 C 80 % 1012,9 hPa 0,5 l/m 2,5 km/h N 10,6 C 14,0 C 12,1 km/h
26.04.2018 08:00 13,8 C 79 % 1013,9 hPa 0,3 l/m 4,6 km/h N 10,2 C 13,8 C 16,5 km/h
26.04.2018 09:00 13,4 C 81 % 1014,1 hPa 1,0 l/m 1,0 km/h N 10,1 C 13,4 C 5,6 km/h
26.04.2018 10:00 13,1 C 81 % 1014,3 hPa 1,3 l/m 0,8 km/h N 10,0 C 13,1 C 6,4 km/h
26.04.2018 11:00 13,1 C 82 % 1014,6 hPa 0,8 l/m 2,8 km/h N 10,0 C 13,1 C 12,1 km/h
26.04.2018 12:00 12,9 C 81 % 1015,1 hPa 0,8 l/m 3,9 km/h N 9,7 C 12,9 C 18,1 km/h
26.04.2018 13:00 12,6 C 80 % 1015,2 hPa 0,0 l/m 3,4 km/h N 9,2 C 12,6 C 14,5 km/h
26.04.2018 14:00 12,7 C 75 % 1015,3 hPa 0,0 l/m 5,8 km/h N 8,4 C 12,5 C 22,5 km/h
26.04.2018 15:00 12,8 C 72 % 1015,7 hPa 0,0 l/m 5,5 km/h N 7,9 C 12,7 C 19,3 km/h
26.04.2018 16:00 12,5 C 72 % 1015,9 hPa 0,5 l/m 4,6 km/h N 7,7 C 12,5 C 18,9 km/h
26.04.2018 17:00 11,9 C 75 % 1016,1 hPa 0,0 l/m 4,6 km/h N 7,6 C 11,8 C 13,3 km/h
26.04.2018 18:00 12,0 C 74 % 1016,1 hPa 0,0 l/m 3,1 km/h N 7,4 C 12,0 C 14,9 km/h
26.04.2018 19:00 12,6 C 68 % 1016,4 hPa 0,0 l/m 2,7 km/h N 6,8 C 12,6 C 16,5 km/h
26.04.2018 20:00 12,0 C 67 % 1016,8 hPa 0,0 l/m 2,5 km/h N 6,1 C 12,0 C 13,3 km/h
26.04.2018 21:00 11,7 C 68 % 1017,4 hPa 0,0 l/m 4,1 km/h N 5,9 C 11,7 C 16,5 km/h
26.04.2018 22:00 11,8 C 66 % 1017,8 hPa 0,0 l/m 7,3 km/h N 5,7 C 11,1 C 20,9 km/h
26.04.2018 23:00 11,9 C 65 % 1018,1 hPa 0,0 l/m 8,6 km/h N 5,5 C 10,4 C 22,1 km/h
27.04.2018 00:00 11,5 C 66 % 1018,7 hPa 0,0 l/m 5,1 km/h N 5,3 C 11,5 C 18,5 km/h
27.04.2018 01:00 11,2 C 68 % 1018,9 hPa 0,0 l/m 3,1 km/h N 5,5 C 11,2 C 14,5 km/h
27.04.2018 02:00 10,3 C 70 % 1019,0 hPa 0,0 l/m 0,3 km/h N 5,1 C 10,3 C 4,8 km/h
27.04.2018 03:00 8,7 C 75 % 1018,9 hPa 0,0 l/m 0,1 km/h N 4,6 C 8,7 C 2,8 km/h
27.04.2018 04:00 8,0 C 77 % 1018,8 hPa 0,0 l/m 0,2 km/h N 4,2 C 8,0 C 2,4 km/h
27.04.2018 05:00 6,8 C 80 % 1018,8 hPa 0,0 l/m 0,2 km/h N 3,6 C 6,8 C 2,0 km/h
27.04.2018 06:00 6,4 C 82 % 1018,9 hPa 0,0 l/m 0,0 km/h N 3,4 C 6,4 C 0,4 km/h
27.04.2018 07:00 7,1 C 82 % 1019,3 hPa 0,0 l/m 0,1 km/h N 4,3 C 7,1 C 1,6 km/h
27.04.2018 08:00 9,3 C 82 % 1019,0 hPa 0,0 l/m 0,0 km/h N 6,4 C 9,3 C 1,2 km/h
27.04.2018 09:00 12,6 C 75 % 1018,6 hPa 0,0 l/m 0,0 km/h N 8,2 C 12,6 C 2,0 km/h
27.04.2018 10:00 14,8 C 66 % 1018,5 hPa 0,0 l/m 1,0 km/h N 8,5 C 14,8 C 7,2 km/h
27.04.2018 11:00 17,3 C 60 % 1017,6 hPa 0,0 l/m 1,7 km/h N 9,3 C 17,3 C 8,9 km/h
27.04.2018 12:00 18,3 C 49 % 1016,6 hPa 0,0 l/m 3,8 km/h N 7,3 C 18,3 C 14,5 km/h
27.04.2018 13:00 19,3 C 44 % 1015,5 hPa 0,0 l/m 3,9 km/h N 6,7 C 19,3 C 14,1 km/h
27.04.2018 14:00 19,8 C 42 % 1014,6 hPa 0,0 l/m 3,9 km/h N 6,6 C 19,8 C 12,9 km/h
27.04.2018 15:00 19,5 C 44 % 1013,6 hPa 0,0 l/m 5,0 km/h N 7,0 C 19,5 C 15,3 km/h
27.04.2018 16:00 19,0 C 49 % 1013,0 hPa 0,0 l/m 5,2 km/h N 8,0 C 19,0 C 12,1 km/h
27.04.2018 17:00 18,6 C 52 % 1012,4 hPa 0,0 l/m 4,7 km/h N 8,5 C 18,6 C 13,3 km/h
27.04.2018 18:00 18,2 C 54 % 1012,1 hPa 0,0 l/m 3,9 km/h N 8,7 C 18,2 C 8,9 km/h
27.04.2018 19:00 17,6 C 57 % 1011,8 hPa 0,0 l/m 3,7 km/h N 9,0 C 17,6 C 10,9 km/h
27.04.2018 20:00 16,5 C 62 % 1011,8 hPa 0,0 l/m 2,4 km/h N 9,2 C 16,5 C 8,0 km/h
27.04.2018 21:00 15,3 C 67 % 1012,0 hPa 0,0 l/m 0,3 km/h N 9,2 C 15,3 C 2,8 km/h
27.04.2018 22:00 13,9 C 72 % 1011,7 hPa 0,0 l/m 0,0 km/h N 8,8 C 13,9 C 1,2 km/h
27.04.2018 23:00 13,2 C 75 % 1011,6 hPa 0,0 l/m 0,0 km/h N 8,8 C 13,2 C 1,2 km/h
28.04.2018 00:00 11,8 C 77 % 1011,6 hPa 0,0 l/m 0,0 km/h N 7,8 C 11,8 C 0,0 km/h
28.04.2018 01:00 10,4 C 80 % 1011,6 hPa 0,0 l/m 0,1 km/h N 7,1 C 10,4 C 1,2 km/h
28.04.2018 02:00 9,1 C 81 % 1011,5 hPa 0,0 l/m 0,0 km/h N 6,1 C 9,1 C 0,0 km/h
28.04.2018 03:00 8,1 C 82 % 1011,8 hPa 0,0 l/m 0,0 km/h N 5,2 C 8,1 C 0,0 km/h
28.04.2018 04:00 7,5 C 82 % 1012,3 hPa 0,0 l/m 0,0 km/h N 4,7 C 7,5 C 0,0 km/h
28.04.2018 05:00 7,3 C 82 % 1012,7 hPa 0,0 l/m 0,0 km/h N 4,4 C 7,3 C 0,0 km/h
28.04.2018 06:00 7,1 C 83 % 1013,2 hPa 0,0 l/m 0,0 km/h N 4,3 C 7,1 C 0,0 km/h
28.04.2018 07:00 8,8 C 83 % 1013,8 hPa 0,0 l/m 0,0 km/h N 6,1 C 8,8 C 0,8 km/h
28.04.2018 08:00 11,6 C 83 % 1014,0 hPa 0,0 l/m 0,1 km/h N 8,8 C 11,6 C 2,4 km/h
28.04.2018 09:00 14,3 C 82 % 1014,3 hPa 0,0 l/m 0,2 km/h N 11,2 C 14,3 C 4,0 km/h
28.04.2018 10:00 17,4 C 75 % 1014,5 hPa 0,0 l/m 0,4 km/h N 13,0 C 17,4 C 6,4 km/h
28.04.2018 11:00 19,5 C 69 % 1014,2 hPa 0,0 l/m 0,3 km/h N 13,5 C 19,5 C 6,0 km/h
28.04.2018 12:00 20,7 C 64 % 1013,7 hPa 0,0 l/m 0,8 km/h N 13,5 C 20,7 C 6,8 km/h
28.04.2018 13:00 22,8 C 58 % 1013,0 hPa 0,0 l/m 0,4 km/h N 14,1 C 22,8 C 5,6 km/h
28.04.2018 14:00 24,4 C 56 % 1012,0 hPa 0,0 l/m 0,9 km/h N 15,1 C 24,4 C 8,1 km/h
28.04.2018 15:00 25,2 C 53 % 1011,1 hPa 0,0 l/m 1,2 km/h N 14,8 C 25,2 C 8,0 km/h
28.04.2018 16:00 25,0 C 53 % 1010,4 hPa 0,0 l/m 2,2 km/h N 14,6 C 25,0 C 10,5 km/h
28.04.2018 17:00 24,5 C 54 % 1010,1 hPa 0,0 l/m 2,8 km/h N 14,6 C 24,5 C 11,7 km/h
28.04.2018 18:00 24,2 C 56 % 1009,8 hPa 0,0 l/m 2,8 km/h N 14,8 C 24,2 C 9,3 km/h
28.04.2018 19:00 23,6 C 59 % 1009,7 hPa 0,0 l/m 0,5 km/h N 15,0 C 23,6 C 4,4 km/h
28.04.2018 20:00 22,3 C 62 % 1010,0 hPa 0,0 l/m 0,1 km/h N 14,6 C 22,3 C 1,2 km/h
28.04.2018 21:00 20,2 C 67 % 1010,1 hPa 0,0 l/m 0,0 km/h N 13,9 C 20,2 C 0,0 km/h
28.04.2018 22:00 18,1 C 73 % 1010,0 hPa 0,0 l/m 0,0 km/h N 13,3 C 18,1 C 1,6 km/h
28.04.2018 23:00 18,5 C 72 % 1010,0 hPa 0,0 l/m 0,1 km/h N 13,4 C 18,5 C 2,8 km/h
29.04.2018 00:00 18,6 C 69 % 1009,9 hPa 0,0 l/m 0,5 km/h N 12,9 C 18,6 C 5,6 km/h
29.04.2018 01:00 18,6 C 66 % 1009,5 hPa 0,0 l/m 0,1 km/h N 12,2 C 18,6 C 2,4 km/h
29.04.2018 02:00 18,7 C 62 % 1009,0 hPa 0,0 l/m 0,1 km/h N 11,3 C 18,7 C 3,2 km/h
29.04.2018 03:00 18,4 C 63 % 1008,7 hPa 0,0 l/m 0,0 km/h N 11,2 C 18,4 C 1,6 km/h
29.04.2018 04:00 17,9 C 62 % 1008,5 hPa 0,0 l/m 0,2 km/h N 10,6 C 17,9 C 4,8 km/h
29.04.2018 05:00 16,4 C 68 % 1008,4 hPa 0,0 l/m 0,0 km/h N 10,4 C 16,4 C 0,0 km/h
29.04.2018 06:00 14,1 C 75 % 1008,5 hPa 0,0 l/m 0,0 km/h N 9,8 C 14,1 C 0,0 km/h
29.04.2018 07:00 14,4 C 79 % 1008,9 hPa 0,0 l/m 0,0 km/h N 10,8 C 14,4 C 1,6 km/h
29.04.2018 08:00 16,9 C 76 % 1008,9 hPa 0,0 l/m 0,3 km/h N 12,7 C 16,9 C 5,2 km/h
29.04.2018 09:00 20,5 C 68 % 1008,8 hPa 0,0 l/m 0,2 km/h N 14,3 C 20,5 C 2,8 km/h
29.04.2018 10:00 24,7 C 55 % 1008,6 hPa 0,0 l/m 0,6 km/h N 15,1 C 24,7 C 6,4 km/h
29.04.2018 11:00 27,5 C 48 % 1008,2 hPa 0,0 l/m 1,1 km/h N 15,4 C 27,5 C 6,4 km/h
29.04.2018 12:00 28,5 C 43 % 1007,5 hPa 0,0 l/m 2,2 km/h N 14,4 C 28,5 C 9,3 km/h
29.04.2018 13:00 29,4 C 34 % 1006,8 hPa 0,0 l/m 4,1 km/h N 11,6 C 29,4 C 15,7 km/h
29.04.2018 14:00 29,4 C 34 % 1006,5 hPa 0,0 l/m 4,1 km/h N 12,0 C 29,4 C 17,7 km/h
29.04.2018 15:00 29,3 C 34 % 1005,9 hPa 0,0 l/m 4,8 km/h N 11,5 C 29,3 C 18,5 km/h
29.04.2018 16:00 28,6 C 35 % 1005,3 hPa 0,0 l/m 4,6 km/h N 11,6 C 28,6 C 19,3 km/h
29.04.2018 17:00 28,1 C 36 % 1005,2 hPa 0,0 l/m 4,3 km/h N 11,6 C 28,1 C 13,3 km/h
29.04.2018 18:00 27,5 C 36 % 1005,0 hPa 0,0 l/m 3,6 km/h N 11,1 C 27,5 C 14,1 km/h
29.04.2018 19:00 26,3 C 38 % 1005,0 hPa 0,0 l/m 2,3 km/h N 11,0 C 26,3 C 12,5 km/h
29.04.2018 20:00 24,5 C 43 % 1005,3 hPa 0,0 l/m 0,2 km/h N 11,2 C 24,5 C 5,6 km/h
29.04.2018 21:00 22,5 C 49 % 1005,5 hPa 0,0 l/m 0,0 km/h N 11,1 C 22,5 C 1,2 km/h
29.04.2018 22:00 20,8 C 54 % 1005,3 hPa 0,0 l/m 0,1 km/h N 11,0 C 20,8 C 4,0 km/h
29.04.2018 23:00 20,4 C 55 % 1004,8 hPa 0,0 l/m 0,4 km/h N 10,9 C 20,4 C 4,0 km/h
Min-Datum _ 27.04.18 29.04.18 29.04.18 - 23.04.18 - 27.04.18 27.04.18 23.04.18
_ Min-Zeit 06:45 13:30 23:15 - 00:00 - 06:00 06:30 00:00
Minimum _ 6,2 C 32 % 1004,7 hPa - 0,0 km/h - 3,4 C 6,3 C 0,0 km/h
Max-Datum _ 29.04.18 28.04.18 27.04.18 26.04.18 25.04.18 - 23.04.18 29.04.18 23.04.18
_ Max-Zeit 13:30 06:30 07:00 10:00 13:15 - 10:00 13:30 12:00
Maximum _ 29,6 C 83 % 1019,3 hPa 1,3 l/m 15,6 km/h
N
- 17,1 C 29,6 C 40,2 km/h
N
Durchschnitt _ 17,9 C 64 % 1012,6 hPa #7,0 l/m 2,5 km/h N 10,4 C 17,8 C 9,4 km/h